Language: 


Des rapports , des résumés tant et plus, au choix de chacun....


Données Historiques de Météogheer
Journalier Rapport pour Janvier 3, 2017 Unitée:  Les deux    Impériale   Métrique
Suivant Jour »
Journalier Hebdomadaire Mensuel Annuel Sur mesure
  Max: Min: Moyenne:
Température: 43.3 °F /  6.3 °C 27.1 °F /  -2.7 °C 34.9 °F /  1.6 °C
Point de rosée: 39.9 °F /  4.4 °C 26.8 °F /  -2.9 °C 33.6 °F /  0.9 °C
Humidité: 98% 86% 95%
Vent: 11mph /  17.7km/h - 5.2mph /  8.4km/h
Rafales: 13.9mph /  22.4km/h - -
Vent- - WSW
Pression: 30.4 in /  1028.0 hPa 30.2 in /  1021.9 hPa -
Pluie: 0 in /  0.0 mm    
Historical Graphs
 
 
Données tabulaires pour Janvier 3, 2017
Heure Température Point de rosée Pression Vent Vent Rafales Humidité Pluie Taux (Horaire) Conditions
00:09 33.4 °F /  0.8 °C 32.7 °F /  0.4 °C 30.3in /  1027.0hPa WNW 2.5mph /  4.0km/h 2.5mph /  4.0km/h 97% 0in /  0.0mm
00:19 33.1 °F /  0.6 °C 32.4 °F /  0.2 °C 30.3in /  1027.0hPa Calm   4.7mph /  7.6km/h 97% 0in /  0.0mm
00:29 33.1 °F /  0.6 °C 32.4 °F /  0.2 °C 30.3in /  1027.0hPa West 2.9mph /  4.7km/h 3.8mph /  6.1km/h 97% 0in /  0.0mm
00:39 32.7 °F /  0.4 °C 31.8 °F /  -0.1 °C 30.3in /  1027.0hPa Calm   4mph /  6.4km/h 97% 0in /  0.0mm
00:49 32.5 °F /  0.3 °C 31.8 °F /  -0.1 °C 30.4in /  1028.0hPa Calm     97% 0in /  0.0mm
00:59 32.4 °F /  0.2 °C 31.6 °F /  -0.2 °C 30.4in /  1028.0hPa West 2.9mph /  4.7km/h 2.9mph /  4.7km/h 97% 0in /  0.0mm
01:09 32.2 °F /  0.1 °C 31.5 °F /  -0.3 °C 30.4in /  1028.0hPa West 1.6mph /  2.6km/h 2.9mph /  4.7km/h 97% 0in /  0.0mm
01:19 31.6 °F /  -0.2 °C 30.9 °F /  -0.6 °C 30.3in /  1027.0hPa Calm   1.6mph /  2.6km/h 97% 0in /  0.0mm
01:29 31.3 °F /  -0.4 °C 30.6 °F /  -0.8 °C 30.3in /  1027.0hPa Calm     97% 0in /  0.0mm
01:39 31.5 °F /  -0.3 °C 30.7 °F /  -0.7 °C 30.4in /  1028.0hPa Calm   3.1mph /  5.0km/h 97% 0in /  0.0mm
01:49 31.3 °F /  -0.4 °C 30.7 °F /  -0.7 °C 30.3in /  1027.0hPa WSW 3.6mph /  5.8km/h 3.8mph /  6.1km/h 98% 0in /  0.0mm
01:59 31.5 °F /  -0.3 °C 30.9 °F /  -0.6 °C 30.3in /  1027.0hPa West 4mph /  6.4km/h 4.5mph /  7.2km/h 98% 0in /  0.0mm
02:09 31.8 °F /  -0.1 °C 31.3 °F /  -0.4 °C 30.3in /  1027.0hPa West 4mph /  6.4km/h 4.9mph /  7.9km/h 98% 0in /  0.0mm
02:19 32 °F /  0.0 °C 31.5 °F /  -0.3 °C 30.3in /  1027.0hPa West 4.3mph /  6.9km/h 4.9mph /  7.9km/h 98% 0in /  0.0mm
02:29 32.2 °F /  0.1 °C 31.6 °F /  -0.2 °C 30.3in /  1027.0hPa West 4.3mph /  6.9km/h 5.4mph /  8.7km/h 98% 0in /  0.0mm
02:39 32 °F /  0.0 °C 31.5 °F /  -0.3 °C 30.3in /  1027.0hPa West 5.6mph /  9.0km/h 5.6mph /  9.0km/h 98% 0in /  0.0mm
02:49 31.8 °F /  -0.1 °C 31.3 °F /  -0.4 °C 30.3in /  1027.0hPa West 4mph /  6.4km/h 5.6mph /  9.0km/h 98% 0in /  0.0mm
02:59 31.6 °F /  -0.2 °C 31.1 °F /  -0.5 °C 30.3in /  1027.0hPa West 5.4mph /  8.7km/h 5.4mph /  8.7km/h 98% 0in /  0.0mm
03:09 31.3 °F /  -0.4 °C 30.7 °F /  -0.7 °C 30.4in /  1028.0hPa WSW 3.6mph /  5.8km/h 5.6mph /  9.0km/h 98% 0in /  0.0mm
03:19 31.1 °F /  -0.5 °C 30.6 °F /  -0.8 °C 30.3in /  1027.0hPa West 3.4mph /  5.5km/h 5.8mph /  9.3km/h 98% 0in /  0.0mm
03:29 30.7 °F /  -0.7 °C 30.4 °F /  -0.9 °C 30.3in /  1027.0hPa WSW 3.6mph /  5.8km/h 5.8mph /  9.3km/h 98% 0in /  0.0mm
03:39 30.6 °F /  -0.8 °C 30 °F /  -1.1 °C 30.3in /  1027.0hPa WSW 3.8mph /  6.1km/h 4.7mph /  7.6km/h 98% 0in /  0.0mm
03:49 30.4 °F /  -0.9 °C 29.8 °F /  -1.2 °C 30.3in /  1027.0hPa West 4mph /  6.4km/h 4.7mph /  7.6km/h 98% 0in /  0.0mm
03:59 30.4 °F /  -0.9 °C 29.8 °F /  -1.2 °C 30.3in /  1027.0hPa WSW 3.6mph /  5.8km/h 4.9mph /  7.9km/h 98% 0in /  0.0mm
04:09 30.2 °F /  -1.0 °C 29.7 °F /  -1.3 °C 30.3in /  1027.0hPa WSW 2.9mph /  4.7km/h 4.5mph /  7.2km/h 98% 0in /  0.0mm
04:19 29.8 °F /  -1.2 °C 29.5 °F /  -1.4 °C 30.3in /  1027.0hPa WSW 3.6mph /  5.8km/h 4mph /  6.4km/h 98% 0in /  0.0mm
04:29 30 °F /  -1.1 °C 29.7 °F /  -1.3 °C 30.3in /  1027.0hPa WSW 2.7mph /  4.3km/h 4.3mph /  6.9km/h 98% 0in /  0.0mm
04:39 30 °F /  -1.1 °C 29.7 °F /  -1.3 °C 30.3in /  1027.0hPa West 3.4mph /  5.5km/h 4mph /  6.4km/h 98% 0in /  0.0mm
04:49 29.8 °F /  -1.2 °C 29.5 °F /  -1.4 °C 30.3in /  1027.0hPa WSW 2.7mph /  4.3km/h 4mph /  6.4km/h 98% 0in /  0.0mm
04:59 29.7 °F /  -1.3 °C 29.1 °F /  -1.6 °C 30.3in /  1027.0hPa WSW 4.5mph /  7.2km/h 4.5mph /  7.2km/h 98% 0in /  0.0mm
05:09 29.7 °F /  -1.3 °C 29.1 °F /  -1.6 °C 30.3in /  1027.0hPa WSW 3.1mph /  5.0km/h 5.4mph /  8.7km/h 98% 0in /  0.0mm
05:19 29.5 °F /  -1.4 °C 28.9 °F /  -1.7 °C 30.3in /  1027.0hPa WSW 3.4mph /  5.5km/h 4.3mph /  6.9km/h 98% 0in /  0.0mm
05:29 29.5 °F /  -1.4 °C 28.9 °F /  -1.7 °C 30.3in /  1027.0hPa WSW 3.6mph /  5.8km/h 4mph /  6.4km/h 98% 0in /  0.0mm
05:49 29.8 °F /  -1.2 °C 29.5 °F /  -1.4 °C 30.3in /  1027.0hPa West 3.4mph /  5.5km/h 5.4mph /  8.7km/h 98% 0in /  0.0mm
05:59 30 °F /  -1.1 °C 29.7 °F /  -1.3 °C 30.3in /  1027.0hPa West 4.3mph /  6.9km/h 5.4mph /  8.7km/h 98% 0in /  0.0mm
06:09 29.7 °F /  -1.3 °C 29.1 °F /  -1.6 °C 30.3in /  1027.0hPa West 4mph /  6.4km/h 6mph /  9.7km/h 98% 0in /  0.0mm
06:19 29.5 °F /  -1.4 °C 28.9 °F /  -1.7 °C 30.3in /  1027.0hPa WSW 3.6mph /  5.8km/h 6mph /  9.7km/h 98% 0in /  0.0mm
06:29 29.5 °F /  -1.4 °C 28.9 °F /  -1.7 °C 30.3in /  1027.0hPa West 3.8mph /  6.1km/h 4.7mph /  7.6km/h 98% 0in /  0.0mm
06:39 29.1 °F /  -1.6 °C 28.8 °F /  -1.8 °C 30.3in /  1027.0hPa WSW 3.1mph /  5.0km/h 4.7mph /  7.6km/h 98% 0in /  0.0mm
06:49 28.9 °F /  -1.7 °C 28.6 °F /  -1.9 °C 30.3in /  1026.0hPa Calm   3.8mph /  6.1km/h 98% 0in /  0.0mm
06:59 28.6 °F /  -1.9 °C 28.2 °F /  -2.1 °C 30.3in /  1026.0hPa Calm     98% 0in /  0.0mm
07:09 27.9 °F /  -2.3 °C 27.5 °F /  -2.5 °C 30.3in /  1027.0hPa Calm     98% 0in /  0.0mm
07:19 27.1 °F /  -2.7 °C 26.8 °F /  -2.9 °C 30.3in /  1027.0hPa Calm     98% 0in /  0.0mm
07:29 27.3 °F /  -2.6 °C 27 °F /  -2.8 °C 30.3in /  1027.0hPa Calm   0.9mph /  1.4km/h 98% 0in /  0.0mm
07:39 28.2 °F /  -2.1 °C 27.9 °F /  -2.3 °C 30.3in /  1027.0hPa West 4mph /  6.4km/h 4.9mph /  7.9km/h 98% 0in /  0.0mm
07:49 28.6 °F /  -1.9 °C 28 °F /  -2.2 °C 30.3in /  1027.0hPa West 3.6mph /  5.8km/h 4.3mph /  6.9km/h 98% 0in /  0.0mm
07:59 28.6 °F /  -1.9 °C 28.2 °F /  -2.1 °C 30.3in /  1027.0hPa West 4mph /  6.4km/h 4.3mph /  6.9km/h 98% 0in /  0.0mm
08:09 28.6 °F /  -1.9 °C 28.2 °F /  -2.1 °C 30.4in /  1028.0hPa WSW 4.7mph /  7.6km/h 5.4mph /  8.7km/h 98% 0in /  0.0mm
08:19 28.8 °F /  -1.8 °C 28.2 °F /  -2.1 °C 30.3in /  1027.0hPa WSW 4.5mph /  7.2km/h 6mph /  9.7km/h 98% 0in /  0.0mm
08:29 28.8 °F /  -1.8 °C 28.2 °F /  -2.1 °C 30.3in /  1027.0hPa WSW 3.8mph /  6.1km/h 5.6mph /  9.0km/h 98% 0in /  0.0mm
08:39 28.6 °F /  -1.9 °C 28 °F /  -2.2 °C 30.3in /  1027.0hPa WSW 4.5mph /  7.2km/h 4.9mph /  7.9km/h 98% 0in /  0.0mm
08:49 28.6 °F /  -1.9 °C 28.2 °F /  -2.1 °C 30.3in /  1026.0hPa WSW 3.6mph /  5.8km/h 5.6mph /  9.0km/h 98% 0in /  0.0mm
08:59 28.6 °F /  -1.9 °C 28.2 °F /  -2.1 °C 30.3in /  1026.0hPa West 4.7mph /  7.6km/h 5.6mph /  9.0km/h 98% 0in /  0.0mm
09:09 28.8 °F /  -1.8 °C 28.2 °F /  -2.1 °C 30.3in /  1027.0hPa West 4.3mph /  6.9km/h 5.8mph /  9.3km/h 98% 0in /  0.0mm
09:19 29.1 °F /  -1.6 °C 28.8 °F /  -1.8 °C 30.3in /  1027.0hPa West 6.3mph /  10.1km/h 6.3mph /  10.1km/h 98% 0in /  0.0mm
09:29 29.5 °F /  -1.4 °C 28.9 °F /  -1.7 °C 30.3in /  1027.0hPa WSW 4mph /  6.4km/h 6.3mph /  10.1km/h 98% 0in /  0.0mm
09:39 29.8 °F /  -1.2 °C 29.5 °F /  -1.4 °C 30.3in /  1027.0hPa WSW 5.4mph /  8.7km/h 6.3mph /  10.1km/h 98% 0in /  0.0mm
09:49 30.2 °F /  -1.0 °C 29.7 °F /  -1.3 °C 30.3in /  1026.0hPa WSW 4.9mph /  7.9km/h 5.6mph /  9.0km/h 98% 0in /  0.0mm
09:59 30.6 °F /  -0.8 °C 30 °F /  -1.1 °C 30.3in /  1026.0hPa West 2.7mph /  4.3km/h 5.6mph /  9.0km/h 98% 0in /  0.0mm
10:09 30.9 °F /  -0.6 °C 30.4 °F /  -0.9 °C 30.3in /  1026.0hPa WSW 4.3mph /  6.9km/h 5.4mph /  8.7km/h 98% 0in /  0.0mm
10:19 32.2 °F /  0.1 °C 31.6 °F /  -0.2 °C 30.3in /  1027.0hPa WSW 3.1mph /  5.0km/h 5.8mph /  9.3km/h 98% 0in /  0.0mm
10:29 33.1 °F /  0.6 °C 32.5 °F /  0.3 °C 30.3in /  1027.0hPa WSW 3.8mph /  6.1km/h 6mph /  9.7km/h 98% 0in /  0.0mm
10:39 33.6 °F /  0.9 °C 33.1 °F /  0.6 °C 30.3in /  1027.0hPa WSW 4mph /  6.4km/h 5.6mph /  9.0km/h 98% 0in /  0.0mm
10:49 34.2 °F /  1.2 °C 33.6 °F /  0.9 °C 30.3in /  1027.0hPa WSW 5.6mph /  9.0km/h 8.1mph /  13.0km/h 98% 0in /  0.0mm
10:59 34.5 °F /  1.4 °C 34.2 °F /  1.2 °C 30.3in /  1027.0hPa WSW 5.4mph /  8.7km/h 7.8mph /  12.6km/h 98% 0in /  0.0mm
11:09 35.4 °F /  1.9 °C 34.9 °F /  1.6 °C 30.3in /  1027.0hPa WSW 5.4mph /  8.7km/h 8.5mph /  13.7km/h 98% 0in /  0.0mm
11:19 35.4 °F /  1.9 °C 35.1 °F /  1.7 °C 30.3in /  1026.0hPa WSW 7.6mph /  12.2km/h 8.7mph /  14.0km/h 98% 0in /  0.0mm
11:29 36 °F /  2.2 °C 35.4 °F /  1.9 °C 30.3in /  1026.0hPa WSW 6.7mph /  10.8km/h 8.7mph /  14.0km/h 98% 0in /  0.0mm
11:39 36.7 °F /  2.6 °C 36.1 °F /  2.3 °C 30.3in /  1027.0hPa West 7.8mph /  12.6km/h 7.8mph /  12.6km/h 98% 0in /  0.0mm
11:49 36.9 °F /  2.7 °C 36.3 °F /  2.4 °C 30.3in /  1026.0hPa WSW 5.6mph /  9.0km/h 9.2mph /  14.8km/h 98% 0in /  0.0mm
12:09 37.6 °F /  3.1 °C 37 °F /  2.8 °C 30.3in /  1027.0hPa WSW 6mph /  9.7km/h 7.8mph /  12.6km/h 98% 0in /  0.0mm
12:19 37.9 °F /  3.3 °C 37.6 °F /  3.1 °C 30.3in /  1026.0hPa WSW 6.5mph /  10.5km/h 7.4mph /  11.9km/h 98% 0in /  0.0mm
12:29 38.5 °F /  3.6 °C 37.8 °F /  3.2 °C 30.3in /  1026.0hPa West 4.9mph /  7.9km/h 7.4mph /  11.9km/h 98% 0in /  0.0mm
12:39 38.8 °F /  3.8 °C 38.1 °F /  3.4 °C 30.3in /  1026.0hPa WSW 7.4mph /  11.9km/h 9.6mph /  15.4km/h 97% 0in /  0.0mm
12:49 39.9 °F /  4.4 °C 38.8 °F /  3.8 °C 30.3in /  1026.0hPa WSW 5.6mph /  9.0km/h 8.7mph /  14.0km/h 96% 0in /  0.0mm
12:59 40.3 °F /  4.6 °C 39 °F /  3.9 °C 30.3in /  1026.0hPa WSW 5.4mph /  8.7km/h 11.4mph /  18.3km/h 95% 0in /  0.0mm
13:09 40.8 °F /  4.9 °C 39.2 °F /  4.0 °C 30.3in /  1026.0hPa WSW 6mph /  9.7km/h 10.3mph /  16.6km/h 94% 0in /  0.0mm
13:19 41.2 °F /  5.1 °C 39.4 °F /  4.1 °C 30.3in /  1026.0hPa WSW 9.8mph /  15.8km/h 9.8mph /  15.8km/h 93% 0in /  0.0mm
13:29 41.2 °F /  5.1 °C 38.1 °F /  3.4 °C 30.3in /  1026.0hPa WSW 8.7mph /  14.0km/h 12.3mph /  19.8km/h 89% 0in /  0.0mm
13:39 41.5 °F /  5.3 °C 38.5 °F /  3.6 °C 30.3in /  1026.0hPa WSW 8.7mph /  14.0km/h 11mph /  17.7km/h 89% 0in /  0.0mm
13:49 41.5 °F /  5.3 °C 38.5 °F /  3.6 °C 30.3in /  1024.9hPa WSW 7.8mph /  12.6km/h 12.3mph /  19.8km/h 89% 0in /  0.0mm
13:59 42.3 °F /  5.7 °C 39.2 °F /  4.0 °C 30.3in /  1024.9hPa WSW 8.7mph /  14.0km/h 11mph /  17.7km/h 89% 0in /  0.0mm
14:09 42.4 °F /  5.8 °C 39.4 °F /  4.1 °C 30.3in /  1024.9hPa WSW 10.5mph /  16.9km/h 12.5mph /  20.1km/h 89% 0in /  0.0mm
14:19 43 °F /  6.1 °C 39.6 °F /  4.2 °C 30.2in /  1023.9hPa WSW 8.7mph /  14.0km/h 11.2mph /  18.0km/h 88% 0in /  0.0mm
14:29 43.3 °F /  6.3 °C 39.9 °F /  4.4 °C 30.2in /  1023.9hPa West 10.1mph /  16.3km/h 12.8mph /  20.6km/h 88% 0in /  0.0mm
14:39 42.6 °F /  5.9 °C 38.7 °F /  3.7 °C 30.3in /  1024.9hPa West 10.3mph /  16.6km/h 13.9mph /  22.4km/h 86% 0in /  0.0mm
14:49 42.3 °F /  5.7 °C 38.7 °F /  3.7 °C 30.3in /  1024.9hPa WSW 5.6mph /  9.0km/h 13mph /  20.9km/h 87% 0in /  0.0mm
14:59 42.1 °F /  5.6 °C 38.8 °F /  3.8 °C 30.3in /  1024.9hPa West 10.7mph /  17.2km/h 10.7mph /  17.2km/h 88% 0in /  0.0mm
15:09 41.7 °F /  5.4 °C 38.5 °F /  3.6 °C 30.2in /  1023.9hPa West 9.2mph /  14.8km/h 10.7mph /  17.2km/h 88% 0in /  0.0mm
15:19 41.2 °F /  5.1 °C 38.1 °F /  3.4 °C 30.3in /  1024.9hPa WSW 9.4mph /  15.1km/h 10.7mph /  17.2km/h 89% 0in /  0.0mm
15:29 41 °F /  5.0 °C 37.9 °F /  3.3 °C 30.3in /  1024.9hPa WSW 9.8mph /  15.8km/h 10.7mph /  17.2km/h 89% 0in /  0.0mm
15:39 40.5 °F /  4.7 °C 37.8 °F /  3.2 °C 30.3in /  1024.9hPa WSW 6.9mph /  11.1km/h 10.3mph /  16.6km/h 90% 0in /  0.0mm
15:49 40.1 °F /  4.5 °C 37.8 °F /  3.2 °C 30.3in /  1024.9hPa WSW 7.6mph /  12.2km/h 10.5mph /  16.9km/h 91% 0in /  0.0mm
15:59 39.7 °F /  4.3 °C 37.2 °F /  2.9 °C 30.3in /  1024.9hPa West 7.4mph /  11.9km/h 10.1mph /  16.3km/h 91% 0in /  0.0mm
16:09 39.6 °F /  4.2 °C 37.2 °F /  2.9 °C 30.3in /  1024.9hPa WSW 7.8mph /  12.6km/h 12.3mph /  19.8km/h 91% 0in /  0.0mm
16:19 39.6 °F /  4.2 °C 37.6 °F /  3.1 °C 30.3in /  1024.9hPa West 9.8mph /  15.8km/h 12.3mph /  19.8km/h 92% 0in /  0.0mm
16:29 39.2 °F /  4.0 °C 37 °F /  2.8 °C 30.3in /  1024.9hPa WSW 8.7mph /  14.0km/h 10.7mph /  17.2km/h 92% 0in /  0.0mm
16:39 39 °F /  3.9 °C 36.7 °F /  2.6 °C 30.3in /  1024.9hPa WSW 10.1mph /  16.3km/h 13.2mph /  21.2km/h 91% 0in /  0.0mm
16:49 38.8 °F /  3.8 °C 36.9 °F /  2.7 °C 30.3in /  1024.9hPa WSW 8.7mph /  14.0km/h 11mph /  17.7km/h 92% 0in /  0.0mm
16:59 38.5 °F /  3.6 °C 36.1 °F /  2.3 °C 30.3in /  1024.9hPa WSW 6.5mph /  10.5km/h 8.7mph /  14.0km/h 91% 0in /  0.0mm
17:09 37.6 °F /  3.1 °C 34.9 °F /  1.6 °C 30.2in /  1023.9hPa WSW 5.6mph /  9.0km/h 7.6mph /  12.2km/h 90% 0in /  0.0mm
17:19 37 °F /  2.8 °C 34.7 °F /  1.5 °C 30.2in /  1023.9hPa WSW 5.4mph /  8.7km/h 6.5mph /  10.5km/h 91% 0in /  0.0mm
17:29 36.9 °F /  2.7 °C 35.1 °F /  1.7 °C 30.2in /  1023.9hPa WSW 5.8mph /  9.3km/h 8.1mph /  13.0km/h 93% 0in /  0.0mm
17:39 36.9 °F /  2.7 °C 35.2 °F /  1.8 °C 30.3in /  1024.9hPa WSW 6mph /  9.7km/h 8.1mph /  13.0km/h 94% 0in /  0.0mm
17:49 36.9 °F /  2.7 °C 35.2 °F /  1.8 °C 30.2in /  1023.9hPa WSW 6.3mph /  10.1km/h 8.5mph /  13.7km/h 94% 0in /  0.0mm
17:59 37 °F /  2.8 °C 35.8 °F /  2.1 °C 30.2in /  1023.9hPa West 6mph /  9.7km/h 8.7mph /  14.0km/h 95% 0in /  0.0mm
18:09 37 °F /  2.8 °C 36.1 °F /  2.3 °C 30.2in /  1023.9hPa WSW 4.9mph /  7.9km/h 9.4mph /  15.1km/h 96% 0in /  0.0mm
18:19 36.7 °F /  2.6 °C 35.2 °F /  1.8 °C 30.2in /  1023.9hPa WSW 1.3mph /  2.1km/h 5.4mph /  8.7km/h 95% 0in /  0.0mm
18:29 36.1 °F /  2.3 °C 34.9 °F /  1.6 °C 30.2in /  1023.9hPa West 5.6mph /  9.0km/h 5.6mph /  9.0km/h 95% 0in /  0.0mm
18:39 36.1 °F /  2.3 °C 34.9 °F /  1.6 °C 30.2in /  1023.9hPa WSW 5.8mph /  9.3km/h 6mph /  9.7km/h 95% 0in /  0.0mm
18:49 35.8 °F /  2.1 °C 34.3 °F /  1.3 °C 30.2in /  1022.9hPa WSW 4.7mph /  7.6km/h 6.3mph /  10.1km/h 95% 0in /  0.0mm
18:59 36.1 °F /  2.3 °C 35.1 °F /  1.7 °C 30.2in /  1022.9hPa West 5.8mph /  9.3km/h 6.5mph /  10.5km/h 96% 0in /  0.0mm
19:09 36.1 °F /  2.3 °C 35.2 °F /  1.8 °C 30.2in /  1023.9hPa West 2.9mph /  4.7km/h 6.5mph /  10.5km/h 96% 0in /  0.0mm
19:19 36 °F /  2.2 °C 34.9 °F /  1.6 °C 30.2in /  1023.9hPa WSW 4.9mph /  7.9km/h 5.8mph /  9.3km/h 96% 0in /  0.0mm
19:29 36.1 °F /  2.3 °C 35.1 °F /  1.7 °C 30.2in /  1023.9hPa WSW 5.8mph /  9.3km/h 6.3mph /  10.1km/h 96% 0in /  0.0mm
19:49 36.3 °F /  2.4 °C 35.6 °F /  2.0 °C 30.2in /  1023.9hPa West 2.9mph /  4.7km/h 3.4mph /  5.5km/h 97% 0in /  0.0mm
19:59 36.3 °F /  2.4 °C 35.6 °F /  2.0 °C 30.2in /  1023.9hPa West 3.6mph /  5.8km/h 4.7mph /  7.6km/h 97% 0in /  0.0mm
20:09 36.1 °F /  2.3 °C 35.4 °F /  1.9 °C 30.2in /  1022.9hPa West 4mph /  6.4km/h 4.9mph /  7.9km/h 97% 0in /  0.0mm
20:19 36.3 °F /  2.4 °C 35.6 °F /  2.0 °C 30.2in /  1022.9hPa Calm   5.6mph /  9.0km/h 97% 0in /  0.0mm
20:29 36.3 °F /  2.4 °C 35.6 °F /  2.0 °C 30.2in /  1022.9hPa West 3.1mph /  5.0km/h 4mph /  6.4km/h 97% 0in /  0.0mm
20:39 36.1 °F /  2.3 °C 35.4 °F /  1.9 °C 30.2in /  1022.9hPa WSW 4.7mph /  7.6km/h 5.4mph /  8.7km/h 97% 0in /  0.0mm
20:49 36.1 °F /  2.3 °C 35.4 °F /  1.9 °C 30.2in /  1022.9hPa WSW 5.8mph /  9.3km/h 7.4mph /  11.9km/h 97% 0in /  0.0mm
20:59 36.7 °F /  2.6 °C 35.8 °F /  2.1 °C 30.2in /  1022.9hPa WSW 5.8mph /  9.3km/h 5.8mph /  9.3km/h 97% 0in /  0.0mm
21:09 36.9 °F /  2.7 °C 36 °F /  2.2 °C 30.2in /  1022.9hPa West 5.8mph /  9.3km/h 7.8mph /  12.6km/h 97% 0in /  0.0mm
21:29 37.6 °F /  3.1 °C 36.9 °F /  2.7 °C 30.2in /  1022.9hPa West 5.4mph /  8.7km/h 7.6mph /  12.2km/h 97% 0in /  0.0mm
21:39 37.9 °F /  3.3 °C 37.2 °F /  2.9 °C 30.2in /  1022.9hPa West 7.2mph /  11.6km/h 9.8mph /  15.8km/h 97% 0in /  0.0mm
21:49 38.5 °F /  3.6 °C 37.8 °F /  3.2 °C 30.2in /  1022.9hPa West 6.5mph /  10.5km/h 11mph /  17.7km/h 97% 0in /  0.0mm
21:59 38.8 °F /  3.8 °C 37.8 °F /  3.2 °C 30.2in /  1022.9hPa West 9.8mph /  15.8km/h 12.8mph /  20.6km/h 96% 0in /  0.0mm
22:09 39 °F /  3.9 °C 37.6 °F /  3.1 °C 30.2in /  1022.9hPa WSW 9.8mph /  15.8km/h 11.2mph /  18.0km/h 94% 0in /  0.0mm
22:19 39 °F /  3.9 °C 36.9 °F /  2.7 °C 30.2in /  1022.9hPa WSW 7.6mph /  12.2km/h 10.7mph /  17.2km/h 92% 0in /  0.0mm
22:29 39.2 °F /  4.0 °C 37 °F /  2.8 °C 30.2in /  1022.9hPa West 11mph /  17.7km/h 13.2mph /  21.2km/h 92% 0in /  0.0mm
22:39 39.4 °F /  4.1 °C 36.7 °F /  2.6 °C 30.2in /  1021.9hPa WSW 10.5mph /  16.9km/h 13.4mph /  21.6km/h 90% 0in /  0.0mm
22:49 39.4 °F /  4.1 °C 37 °F /  2.8 °C 30.2in /  1022.9hPa SW 4.7mph /  7.6km/h 12.3mph /  19.8km/h 91% 0in /  0.0mm
22:59 39.4 °F /  4.1 °C 37 °F /  2.8 °C 30.2in /  1022.9hPa West 6.3mph /  10.1km/h 10.5mph /  16.9km/h 91% 0in /  0.0mm
23:09 39.4 °F /  4.1 °C 37 °F /  2.8 °C 30.2in /  1021.9hPa West 8.5mph /  13.7km/h 10.5mph /  16.9km/h 91% 0in /  0.0mm
23:19 39.6 °F /  4.2 °C 37.2 °F /  2.9 °C 30.2in /  1021.9hPa West 10.7mph /  17.2km/h 12.8mph /  20.6km/h 91% 0in /  0.0mm
23:29 39.7 °F /  4.3 °C 37.2 °F /  2.9 °C 30.2in /  1021.9hPa West 10.3mph /  16.6km/h 13mph /  20.9km/h 91% 0in /  0.0mm
23:39 39.7 °F /  4.3 °C 37.2 °F /  2.9 °C 30.2in /  1021.9hPa West 8.1mph /  13.0km/h 13mph /  20.9km/h 91% 0in /  0.0mm
23:49 40.1 °F /  4.5 °C 37.8 °F /  3.2 °C 30.2in /  1021.9hPa West 6.5mph /  10.5km/h 11.4mph /  18.3km/h 91% 0in /  0.0mm
23:59 40.1 °F /  4.5 °C 37.8 °F /  3.2 °C 30.2in /  1021.9hPa West 4.3mph /  6.9km/h 9.6mph /  15.4km/h 91% 0in /  0.0mm
Données Historique de Météo Turbie

Mise a jour : 22/05/2018 21:48:14
Généré par Cumulus 1.9.4 (1099)